Time;durP1;ratioP1;P1;durP2;ratioP2;P2;SDS_P1;SDS_P2;PMS_P1;PMS_P2;Temp;Humidity;BMP_temperature;BMP_pressure;BME280_temperature;BME280_humidity;BME280_pressure;Samples;Min_cycle;Max_cycle;Signal;HPM_P1;HPM_P2
2021/03/25 00:00:19;;;;;;;7.57;3.72;;;8.00;60.20;;;;;;2523321;55;20927;-68
2021/03/25 00:02:46;;;;;;;5.70;2.95;;;8.00;60.30;;;;;;2509998;55;20953;-67
2021/03/25 00:05:14;;;;;;;5.47;2.50;;;8.00;60.30;;;;;;2503959;55;20996;-67
2021/03/25 00:07:40;;;;;;;5.80;2.62;;;7.90;60.30;;;;;;2288560;56;20950;-67
2021/03/25 00:10:17;;;;;;;4.30;2.08;;;7.90;60.30;;;;;;2289041;56;21022;-68
2021/03/25 00:12:44;;;;;;;4.28;2.25;;;7.90;60.40;;;;;;2288807;56;21058;-68
2021/03/25 00:15:12;;;;;;;4.43;2.17;;;7.90;60.50;;;;;;2286830;56;21748;-68
2021/03/25 00:17:40;;;;;;;3.97;2.05;;;7.80;60.50;;;;;;2273030;56;20938;-68
2021/03/25 00:20:08;;;;;;;4.55;2.10;;;7.80;60.40;;;;;;2497081;55;21010;-68
2021/03/25 00:22:36;;;;;;;4.82;2.22;;;7.80;60.40;;;;;;2499292;55;21734;-68
2021/03/25 00:25:03;;;;;;;4.30;1.98;;;7.80;60.50;;;;;;2493205;55;20932;-67
2021/03/25 00:27:30;;;;;;;4.53;2.10;;;7.70;60.40;;;;;;2272665;55;21123;-67
2021/03/25 00:29:56;;;;;;;4.00;1.62;;;7.70;60.40;;;;;;2496655;55;21058;-68
2021/03/25 00:32:23;;;;;;;6.03;2.20;;;7.60;60.40;;;;;;2523369;55;21046;-67
2021/03/25 00:34:52;;;;;;;5.10;2.50;;;7.60;60.40;;;;;;2288604;56;20943;-67
2021/03/25 00:37:19;;;;;;;7.95;3.37;;;7.60;60.40;;;;;;2280654;56;20930;-68
2021/03/25 00:39:45;;;;;;;8.68;3.40;;;7.50;60.30;;;;;;2284627;55;21050;-68
2021/03/25 00:42:12;;;;;;;7.65;3.17;;;7.50;60.40;;;;;;2497721;55;20943;-67
2021/03/25 00:44:38;;;;;;;7.78;3.25;;;7.50;60.40;;;;;;2523993;55;20983;-68
2021/03/25 00:47:05;;;;;;;6.95;3.28;;;7.40;60.40;;;;;;2504783;55;20966;-67
2021/03/25 00:49:34;;;;;;;5.45;2.75;;;7.40;60.40;;;;;;2514981;55;22504;-66
2021/03/25 00:52:00;;;;;;;7.15;2.85;;;7.40;60.60;;;;;;2278510;56;20996;-68
2021/03/25 00:54:27;;;;;;;5.07;2.35;;;7.30;60.50;;;;;;2514090;55;20934;-67
2021/03/25 00:56:53;;;;;;;5.05;2.40;;;7.30;60.50;;;;;;2290608;56;20958;-68
2021/03/25 00:59:20;;;;;;;5.30;2.83;;;7.30;60.50;;;;;;2498999;55;21035;-68
2021/03/25 01:01:46;;;;;;;4.95;2.62;;;7.20;60.50;;;;;;2279488;56;20942;-68
2021/03/25 01:04:13;;;;;;;6.87;2.55;;;7.20;60.50;;;;;;2517331;55;20951;-68
2021/03/25 01:06:40;;;;;;;4.78;2.37;;;7.20;60.50;;;;;;2289458;56;20974;-68
2021/03/25 01:09:16;;;;;;;5.97;2.78;;;7.10;60.50;;;;;;2523253;55;20958;-67
2021/03/25 01:11:43;;;;;;;4.40;2.50;;;7.10;60.60;;;;;;2288904;56;20935;-68
2021/03/25 01:14:10;;;;;;;6.30;2.55;;;7.10;60.80;;;;;;2505053;55;21030;-68
2021/03/25 01:16:42;;;;;;;6.30;3.10;;;7.00;60.80;;;;;;2283038;56;20966;-68
2021/03/25 01:19:16;;;;;;;4.05;2.12;;;7.00;60.90;;;;;;2524336;55;20979;-68
2021/03/25 01:21:42;;;;;;;4.62;2.30;;;7.00;61.50;;;;;;2522866;55;21092;-67
2021/03/25 01:24:11;;;;;;;5.10;2.12;;;7.00;61.00;;;;;;2288477;56;21760;-68
2021/03/25 01:26:40;;;;;;;4.85;2.12;;;6.90;60.80;;;;;;2499034;55;21751;-68
2021/03/25 01:29:06;;;;;;;5.50;2.42;;;6.90;60.90;;;;;;2288525;56;20931;-68
2021/03/25 01:31:34;;;;;;;5.53;2.67;;;6.90;60.90;;;;;;2520486;55;21027;-67
2021/03/25 01:34:01;;;;;;;6.35;2.65;;;6.90;61.00;;;;;;2288562;56;20927;-68
2021/03/25 01:36:27;;;;;;;3.58;1.98;;;6.90;61.00;;;;;;2523722;55;20987;-68
2021/03/25 01:38:54;;;;;;;4.55;2.33;;;6.80;61.00;;;;;;2270086;56;21725;-69
2021/03/25 01:41:21;;;;;;;4.30;2.12;;;6.80;61.00;;;;;;2289387;56;21062;-68
2021/03/25 01:43:48;;;;;;;5.55;2.60;;;6.70;61.00;;;;;;2292368;56;20963;-68
2021/03/25 01:56:34;;;;;;;3.70;1.95;;;6.70;61.00;;;;;;2498749;55;20974;-67
2021/03/25 01:59:29;;;;;;;4.28;1.85;;;6.60;60.20;;;;;;2288170;56;20979;-68
2021/03/25 02:07:01;;;;;;;4.12;1.70;;;6.50;60.60;;;;;;2496497;55;21050;-67
2021/03/25 02:09:52;;;;;;;3.37;1.77;;;6.50;60.80;;;;;;2503328;55;20922;-68
2021/03/25 02:13:58;;;;;;;3.62;1.52;;;6.30;60.70;;;;;;2496810;55;20979;-67
2021/03/25 02:16:36;;;;;;;4.28;2.10;;;6.30;61.00;;;;;;2280092;55;20990;-68
2021/03/25 02:19:11;;;;;;;5.20;2.50;;;6.20;61.00;;;;;;2281885;56;21019;-67
2021/03/25 02:25:10;;;;;;;4.60;2.22;;;6.20;61.20;;;;;;2277013;55;20935;-67
2021/03/25 02:30:48;;;;;;;4.90;2.17;;;6.20;60.80;;;;;;2289115;56;20950;-68
2021/03/25 02:33:16;;;;;;;4.95;2.05;;;6.20;60.90;;;;;;2288239;56;21110;-68
2021/03/25 02:35:46;;;;;;;3.92;1.65;;;6.10;61.40;;;;;;2289605;55;20971;-67
2021/03/25 02:38:30;;;;;;;4.10;1.90;;;6.10;61.50;;;;;;2273254;55;21996;-67
2021/03/25 02:40:58;;;;;;;4.47;2.10;;;6.10;61.50;;;;;;2504095;55;20950;-68
2021/03/25 02:43:53;;;;;;;3.97;1.90;;;6.00;61.60;;;;;;2268658;56;20967;-68
2021/03/25 02:46:23;;;;;;;4.70;2.08;;;6.00;61.60;;;;;;2269976;56;21030;-68
2021/03/25 02:48:50;;;;;;;3.75;2.00;;;6.00;61.80;;;;;;2503156;55;21794;-68
2021/03/25 02:52:40;;;;;;;3.85;1.77;;;6.00;61.90;;;;;;2288766;56;20970;-67
2021/03/25 02:55:11;;;;;;;5.10;1.95;;;6.00;61.70;;;;;;2507586;55;21030;-67
2021/03/25 02:58:23;;;;;;;4.68;2.08;;;6.00;62.10;;;;;;2271399;55;21038;-68
2021/03/25 03:00:58;;;;;;;4.82;1.98;;;6.00;61.80;;;;;;2523145;55;20938;-67
2021/03/25 03:03:31;;;;;;;3.95;1.73;;;6.00;62.10;;;;;;2277279;55;21042;-68
2021/03/25 03:05:58;;;;;;;3.78;1.83;;;6.00;62.10;;;;;;2284517;56;20991;-67
2021/03/25 03:08:26;;;;;;;3.67;1.77;;;6.00;62.20;;;;;;2523750;55;20947;-68
2021/03/25 03:11:36;;;;;;;3.53;1.80;;;5.90;62.10;;;;;;2271528;56;20967;-67
2021/03/25 03:14:06;;;;;;;3.42;1.67;;;5.90;62.00;;;;;;2290710;55;21098;-68
2021/03/25 03:16:47;;;;;;;4.03;1.75;;;5.90;62.00;;;;;;2269161;56;21420;-68
2021/03/25 03:19:16;;;;;;;4.43;2.00;;;5.90;61.90;;;;;;2270369;55;21026;-68
2021/03/25 03:22:05;;;;;;;6.65;2.37;;;5.90;61.90;;;;;;2270535;56;21033;-68
2021/03/25 03:24:32;;;;;;;4.40;2.17;;;5.90;62.00;;;;;;2285741;55;21014;-68
2021/03/25 03:27:21;;;;;;;3.60;1.85;;;5.90;62.20;;;;;;2273628;56;21811;-68
2021/03/25 03:29:48;;;;;;;3.55;1.90;;;5.80;62.00;;;;;;2289086;56;20943;-68
2021/03/25 03:34:12;;;;;;;4.10;2.00;;;5.80;62.20;;;;;;2289048;56;20966;-67
2021/03/25 03:36:41;;;;;;;3.55;1.73;;;5.80;62.40;;;;;;2289268;56;20955;-68
2021/03/25 03:39:09;;;;;;;3.37;1.42;;;5.80;62.40;;;;;;2290324;55;21042;-68
2021/03/25 03:41:49;;;;;;;4.28;1.95;;;5.80;62.40;;;;;;2268528;56;21050;-68
2021/03/25 03:44:17;;;;;;;3.87;2.12;;;5.80;62.40;;;;;;2288869;56;21540;-67
2021/03/25 03:46:44;;;;;;;4.95;1.45;;;5.80;62.40;;;;;;2288744;56;21008;-67
2021/03/25 03:49:33;;;;;;;4.50;1.90;;;5.80;62.40;;;;;;2279094;56;21010;-67
2021/03/25 03:52:07;;;;;;;5.93;2.08;;;5.80;62.20;;;;;;2517219;55;20958;-67
2021/03/25 03:54:35;;;;;;;4.25;1.92;;;5.80;62.30;;;;;;2276395;56;20978;-67
2021/03/25 03:58:37;;;;;;;6.18;1.70;;;5.80;62.40;;;;;;2276527;56;20966;-68
2021/03/25 04:01:42;;;;;;;3.30;1.60;;;5.50;61.50;;;;;;2285854;55;20982;-67
2021/03/25 04:04:23;;;;;;;4.05;1.58;;;5.70;62.20;;;;;;2512800;55;20950;-67
2021/03/25 04:06:54;;;;;;;4.70;2.17;;;5.70;62.20;;;;;;2523345;55;21007;-67
2021/03/25 04:12:53;;;;;;;3.85;1.95;;;5.70;62.30;;;;;;2289381;56;21550;-67
2021/03/25 04:15:27;;;;;;;3.22;1.55;;;5.60;61.80;;;;;;2288713;56;20979;-68
2021/03/25 04:18:29;;;;;;;2.90;1.27;;;5.60;62.20;;;;;;2277351;56;21505;-67
2021/03/25 04:20:59;;;;;;;3.45;1.73;;;5.60;62.20;;;;;;2289396;56;20994;-67
2021/03/25 04:23:28;;;;;;;3.22;1.30;;;5.60;62.30;;;;;;2523156;55;20970;-68
2021/03/25 04:26:04;;;;;;;3.95;1.60;;;5.60;62.30;;;;;;2275703;56;20937;-68
2021/03/25 04:28:40;;;;;;;4.40;1.90;;;5.60;62.40;;;;;;2263097;56;21031;-69
2021/03/25 04:31:06;;;;;;;3.62;1.77;;;5.50;62.40;;;;;;2279390;56;20951;-67
2021/03/25 04:33:37;;;;;;;3.80;1.58;;;5.50;62.50;;;;;;2523267;55;20975;-67
2021/03/25 04:36:06;;;;;;;4.35;1.87;;;5.50;62.50;;;;;;2498256;55;20975;-68
2021/03/25 04:38:35;;;;;;;4.60;1.90;;;5.50;63.10;;;;;;2289351;56;20971;-68
2021/03/25 04:41:03;;;;;;;5.15;2.12;;;5.50;62.50;;;;;;2270722;56;20947;-68
2021/03/25 04:43:36;;;;;;;5.50;2.53;;;5.50;62.50;;;;;;2291771;56;21594;-68
2021/03/25 04:46:32;;;;;;;3.80;1.80;;;5.40;62.40;;;;;;2523305;55;20927;-67
2021/03/25 04:49:04;;;;;;;5.80;2.20;;;5.40;62.40;;;;;;2512122;55;20935;-67
2021/03/25 04:51:30;;;;;;;3.30;1.65;;;5.40;62.40;;;;;;2278121;56;21833;-67
2021/03/25 04:54:29;;;;;;;3.58;1.85;;;5.40;62.40;;;;;;2522918;55;21082;-68
2021/03/25 04:56:59;;;;;;;4.30;1.62;;;5.40;62.30;;;;;;2523538;55;21427;-67
2021/03/25 04:59:25;;;;;;;4.70;2.10;;;5.30;62.40;;;;;;2290054;55;20908;-67
2021/03/25 05:01:54;;;;;;;4.28;1.90;;;5.30;62.40;;;;;;2271492;56;20931;-68
2021/03/25 05:04:20;;;;;;;3.58;1.70;;;5.30;62.60;;;;;;2289166;56;21459;-67
2021/03/25 05:06:57;;;;;;;4.40;1.60;;;5.30;62.60;;;;;;2288822;56;20995;-67
2021/03/25 05:09:24;;;;;;;3.72;1.77;;;5.30;62.60;;;;;;2288807;56;20963;-67
2021/03/25 05:11:51;;;;;;;4.45;2.10;;;5.30;62.70;;;;;;2289188;56;21548;-68
2021/03/25 05:14:24;;;;;;;4.90;1.92;;;5.30;62.70;;;;;;2288949;56;20998;-69
2021/03/25 05:19:55;;;;;;;3.42;1.67;;;5.20;62.70;;;;;;2523434;55;21736;-67
2021/03/25 05:23:01;;;;;;;4.25;1.77;;;5.20;62.20;;;;;;2522890;55;21063;-67
2021/03/25 05:25:47;;;;;;;4.45;1.90;;;5.20;62.50;;;;;;2277073;56;20982;-67
2021/03/25 05:28:32;;;;;;;4.18;1.80;;;5.20;62.70;;;;;;2285263;56;21066;-67
2021/03/25 05:30:58;;;;;;;4.03;1.75;;;5.20;62.80;;;;;;2288813;56;21058;-67
2021/03/25 05:33:25;;;;;;;3.72;1.80;;;5.00;62.70;;;;;;2289175;56;20967;-67
2021/03/25 05:35:54;;;;;;;3.85;1.62;;;5.20;63.00;;;;;;2289081;56;21702;-67
2021/03/25 05:38:21;;;;;;;4.62;2.05;;;5.20;63.10;;;;;;2288682;56;21026;-68
2021/03/25 05:40:50;;;;;;;3.97;1.90;;;5.20;63.10;;;;;;2523223;55;20919;-67
2021/03/25 05:50:25;;;;;;;4.65;2.10;;;5.20;63.20;;;;;;2288900;56;21032;-67
2021/03/25 05:55:50;;;;;;;4.72;2.30;;;5.20;63.20;;;;;;2270012;56;21037;-68
2021/03/25 05:59:09;;;;;;;4.50;2.30;;;5.30;63.40;;;;;;2523304;55;21062;-67
2021/03/25 06:04:22;;;;;;;3.65;1.70;;;5.30;63.40;;;;;;2288635;56;20938;-68
2021/03/25 06:07:27;;;;;;;5.00;1.52;;;5.30;63.80;;;;;;2523282;55;21420;-67
2021/03/25 06:10:59;;;;;;;4.75;1.80;;;5.40;64.10;;;;;;2272869;55;20990;-67
2021/03/25 06:23:13;;;;;;;6.05;2.03;;;5.40;64.40;;;;;;2285840;56;21064;-68
2021/03/25 06:26:46;;;;;;;4.03;1.60;;;5.60;64.20;;;;;;2288891;56;21034;-68
2021/03/25 06:29:21;;;;;;;3.70;1.60;;;5.90;65.10;;;;;;2474207;55;21042;-68
2021/03/25 06:32:05;;;;;;;2.97;1.40;;;5.90;65.40;;;;;;2289765;55;21026;-67
2021/03/25 06:34:38;;;;;;;4.87;1.90;;;6.10;65.90;;;;;;2505976;55;20935;-68
2021/03/25 06:37:57;;;;;;;3.85;1.60;;;6.10;66.10;;;;;;2288556;56;21031;-69
2021/03/25 06:41:41;;;;;;;5.10;1.90;;;6.30;66.00;;;;;;2276140;55;21014;-67
2021/03/25 06:45:41;;;;;;;;;;;6.40;65.90;;;;;;2291921;56;21047;-68
2021/03/25 06:48:13;;;;;;;4.60;2.03;;;6.50;65.70;;;;;;2522663;55;20053;-67
2021/03/25 06:50:58;;;;;;;4.22;2.00;;;6.80;66.70;;;;;;2288984;56;20947;-67
2021/03/25 06:53:28;;;;;;;3.95;2.03;;;6.80;66.60;;;;;;2522978;55;20935;-68
2021/03/25 06:55:57;;;;;;;4.00;2.05;;;7.00;67.10;;;;;;2281103;56;21190;-68
2021/03/25 06:58:32;;;;;;;6.65;2.33;;;7.10;67.10;;;;;;2277987;56;20950;-68
2021/03/25 07:01:05;;;;;;;4.40;2.50;;;7.20;67.20;;;;;;2522820;55;21007;-68
2021/03/25 07:03:35;;;;;;;5.05;2.70;;;7.30;67.30;;;;;;2507920;55;20982;-68
2021/03/25 07:06:01;;;;;;;5.37;2.70;;;7.50;67.40;;;;;;2279197;56;20986;-68
2021/03/25 07:08:32;;;;;;;6.65;2.50;;;7.50;67.30;;;;;;2288165;56;21352;-68
2021/03/25 07:11:02;;;;;;;5.87;3.08;;;7.60;67.40;;;;;;2287810;56;20946;-67
2021/03/25 07:13:36;;;;;;;6.15;2.75;;;7.70;67.40;;;;;;2287866;56;21062;-68
2021/03/25 07:16:03;;;;;;;6.25;2.90;;;7.90;67.50;;;;;;2287770;56;21570;-68
2021/03/25 07:18:33;;;;;;;6.53;3.10;;;8.00;67.60;;;;;;2287691;56;20947;-67
2021/03/25 07:21:19;;;;;;;5.40;3.00;;;8.10;68.00;;;;;;2522782;55;21047;-68
2021/03/25 07:23:45;;;;;;;6.28;3.00;;;8.20;67.30;;;;;;2288471;56;20995;-68
2021/03/25 07:26:40;;;;;;;5.75;2.95;;;8.40;67.80;;;;;;2522525;55;21042;-68
2021/03/25 07:29:17;;;;;;;4.80;2.62;;;8.50;67.70;;;;;;2272874;56;21832;-67
2021/03/25 07:32:21;;;;;;;4.72;2.35;;;8.70;68.00;;;;;;2287256;56;20994;-68
2021/03/25 07:34:48;;;;;;;4.78;2.72;;;8.80;67.70;;;;;;2518031;55;21588;-68
2021/03/25 07:37:17;;;;;;;5.15;2.60;;;9.00;68.10;;;;;;2271498;56;21034;-68
2021/03/25 07:39:49;;;;;;;4.80;2.53;;;9.10;68.20;;;;;;2287981;56;21693;-68
2021/03/25 07:42:28;;;;;;;4.60;2.50;;;9.30;68.20;;;;;;2270628;56;21355;-68
2021/03/25 07:45:15;;;;;;;3.80;1.90;;;9.40;68.20;;;;;;2496793;55;20983;-68
2021/03/25 07:47:41;;;;;;;3.22;1.90;;;9.50;68.40;;;;;;2272781;56;21006;-68
2021/03/25 07:50:29;;;;;;;3.90;2.10;;;9.70;68.50;;;;;;2279355;55;21074;-67
2021/03/25 07:52:58;;;;;;;3.97;2.17;;;9.90;68.30;;;;;;2264859;56;20955;-68
2021/03/25 07:55:28;;;;;;;5.00;2.33;;;10.10;67.80;;;;;;2291521;56;21799;-67
2021/03/25 07:57:55;;;;;;;4.70;2.62;;;10.20;67.80;;;;;;2269975;56;21039;-68
2021/03/25 08:00:34;;;;;;;4.62;2.40;;;10.40;68.40;;;;;;2275650;55;21014;-67
2021/03/25 08:03:15;;;;;;;4.62;2.58;;;10.70;68.50;;;;;;2288052;56;21003;-67
2021/03/25 08:05:42;;;;;;;6.10;2.87;;;10.90;69.60;;;;;;2288505;56;21049;-68
2021/03/25 08:08:32;;;;;;;5.05;2.90;;;11.20;69.80;;;;;;2520370;55;21054;-68
2021/03/25 08:11:19;;;;;;;4.53;2.78;;;11.50;69.30;;;;;;2504022;55;20966;-69
2021/03/25 08:13:53;;;;;;;5.28;2.65;;;11.80;69.90;;;;;;2288379;56;20967;-68
2021/03/25 08:16:21;;;;;;;4.78;2.65;;;12.10;70.70;;;;;;2511849;55;21825;-68
2021/03/25 08:25:44;;;;;;;4.15;2.47;;;12.40;71.00;;;;;;2507606;55;21398;-68
2021/03/25 08:28:37;;;;;;;3.00;1.40;;;12.70;70.50;;;;;;2522546;55;21731;-68
2021/03/25 08:31:16;;;;;;;4.68;2.33;;;13.90;70.80;;;;;;2508918;55;21394;-69
2021/03/25 08:35:44;;;;;;;4.90;2.87;;;14.30;71.40;;;;;;2513630;55;21018;-69
2021/03/25 08:41:22;;;;;;;4.97;3.03;;;14.80;69.20;;;;;;2500623;55;21006;-68
2021/03/25 08:45:27;;;;;;;4.30;2.50;;;15.40;69.50;;;;;;2288557;56;21531;-69
2021/03/25 08:48:13;;;;;;;4.82;3.00;;;15.90;69.60;;;;;;2288267;56;21016;-66
2021/03/25 08:51:01;;;;;;;5.05;2.97;;;16.30;70.70;;;;;;2288434;56;21065;-68
2021/03/25 08:56:08;;;;;;;4.90;2.90;;;16.60;71.30;;;;;;2269482;56;21042;-70
2021/03/25 08:58:36;;;;;;;6.12;2.87;;;17.20;68.30;;;;;;2522298;55;20954;-67
2021/03/25 09:01:09;;;;;;;4.78;2.90;;;17.40;71.50;;;;;;2288754;56;21015;-65
2021/03/25 09:03:46;;;;;;;4.32;2.70;;;17.70;70.60;;;;;;2288438;56;20967;-71
2021/03/25 09:06:21;;;;;;;5.40;3.08;;;18.00;69.60;;;;;;2522486;55;21855;-66
2021/03/25 09:08:49;;;;;;;4.80;2.75;;;18.30;70.70;;;;;;2521837;55;20999;-66
2021/03/25 09:11:18;;;;;;;4.25;2.50;;;18.60;70.10;;;;;;2496349;55;21002;-68
2021/03/25 09:13:50;;;;;;;5.18;2.75;;;18.90;70.00;;;;;;2522336;55;21087;-67
2021/03/25 09:16:32;;;;;;;5.35;3.37;;;19.20;68.00;;;;;;2278211;56;21038;-69
2021/03/25 09:18:59;;;;;;;4.37;2.73;;;19.50;67.60;;;;;;2490530;55;21054;-67
2021/03/25 09:21:27;;;;;;;4.53;2.65;;;19.80;67.50;;;;;;2270249;55;20971;-66
2021/03/25 09:24:07;;;;;;;5.32;2.80;;;20.10;66.30;;;;;;2276053;56;20965;-67
2021/03/25 09:26:58;;;;;;;4.93;2.70;;;20.40;64.80;;;;;;2284411;56;21066;-67
2021/03/25 09:29:33;;;;;;;5.05;2.70;;;20.60;63.20;;;;;;2288011;56;21041;-66
2021/03/25 09:32:41;;;;;;;4.87;2.60;;;20.80;64.20;;;;;;2478003;55;21006;-68
2021/03/25 09:36:59;;;;;;;4.35;2.33;;;21.10;61.40;;;;;;2288380;56;21047;-66
2021/03/25 09:39:30;;;;;;;4.57;2.60;;;21.50;61.60;;;;;;2522291;55;21043;-67
2021/03/25 09:41:58;;;;;;;4.40;2.50;;;21.70;64.60;;;;;;2277398;56;21066;-67
2021/03/25 09:44:33;;;;;;;4.50;2.47;;;21.80;64.10;;;;;;2283741;56;21085;-68
2021/03/25 09:47:54;;;;;;;7.03;2.87;;;22.00;63.70;;;;;;2279133;55;20959;-67
2021/03/25 09:50:22;;;;;;;4.35;2.45;;;22.30;59.80;;;;;;2276712;56;20970;-66
2021/03/25 09:53:11;;;;;;;5.15;2.97;;;22.40;62.90;;;;;;2513441;55;20927;-68
2021/03/25 09:55:39;;;;;;;5.35;2.70;;;22.60;58.40;;;;;;2521735;55;20994;-69
2021/03/25 09:58:44;;;;;;;6.03;3.05;;;22.70;61.30;;;;;;2497040;55;20998;-67
2021/03/25 10:01:37;;;;;;;5.97;2.90;;;22.90;58.30;;;;;;2290788;56;20971;-67
2021/03/25 10:04:29;;;;;;;5.82;2.85;;;23.00;60.50;;;;;;2288028;56;21471;-67
2021/03/25 10:07:04;;;;;;;5.35;3.20;;;23.20;57.00;;;;;;2505969;55;21022;-67
2021/03/25 10:09:53;;;;;;;5.10;2.97;;;23.30;59.00;;;;;;2285884;56;20963;-67
2021/03/25 10:12:47;;;;;;;6.72;3.20;;;23.40;56.20;;;;;;2506821;55;20994;-71
2021/03/25 10:22:03;;;;;;;5.97;2.90;;;23.50;55.70;;;;;;2284922;56;20959;-70
2021/03/25 10:24:39;;;;;;;6.78;3.37;;;23.70;55.10;;;;;;2269865;55;21538;-68
2021/03/25 10:27:31;;;;;;;6.55;3.40;;;23.70;55.00;;;;;;2496593;55;21824;-73
2021/03/25 10:29:58;;;;;;;;;;;23.60;53.00;;;;;;2501591;55;21400;-70
2021/03/25 10:32:35;;;;;;;5.55;2.75;;;23.50;53.80;;;;;;2282758;56;20089;-71
2021/03/25 10:35:04;;;;;;;5.53;2.72;;;23.40;54.90;;;;;;2258716;56;21335;-73
2021/03/25 10:37:45;;;;;;;7.75;3.00;;;23.20;56.20;;;;;;2496066;55;21022;-71
2021/03/25 10:40:23;;;;;;;5.72;3.28;;;23.30;55.00;;;;;;2291697;56;20970;-72
2021/03/25 10:43:34;;;;;;;5.82;3.15;;;23.30;56.00;;;;;;2288352;56;21011;-67
2021/03/25 10:46:03;;;;;;;5.82;2.97;;;23.30;54.60;;;;;;2269103;56;21780;-67
2021/03/25 10:48:40;;;;;;;5.90;3.33;;;23.30;56.30;;;;;;2287931;56;21082;-66
2021/03/25 10:51:17;;;;;;;7.22;3.60;;;23.40;54.60;;;;;;2522203;55;21003;-68
2021/03/25 10:53:53;;;;;;;6.25;3.33;;;23.40;54.30;;;;;;2287888;56;20956;-69
2021/03/25 10:56:37;;;;;;;6.47;3.37;;;23.40;54.20;;;;;;2288494;56;20939;-68
2021/03/25 10:59:19;;;;;;;6.15;3.03;;;23.40;54.60;;;;;;2516891;55;21046;-67
2021/03/25 11:01:59;;;;;;;6.37;3.20;;;23.50;54.00;;;;;;2505392;55;20938;-67
2021/03/25 11:04:34;;;;;;;6.75;3.25;;;23.60;54.10;;;;;;2288288;56;20967;-67
2021/03/25 11:07:17;;;;;;;7.00;3.83;;;23.60;54.50;;;;;;2522435;55;21483;-69
2021/03/25 11:09:52;;;;;;;;;;;23.70;53.40;;;;;;2276644;56;21034;-69
2021/03/25 11:12:21;;;;;;;5.35;2.92;;;23.80;54.20;;;;;;2287865;56;20553;-69
2021/03/25 11:15:27;;;;;;;5.95;3.28;;;23.80;56.70;;;;;;2521711;55;20923;-70
2021/03/25 11:17:53;;;;;;;6.72;3.12;;;24.00;55.70;;;;;;2522711;55;20990;-71
2021/03/25 11:20:22;;;;;;;6.53;3.55;;;24.20;57.00;;;;;;2272764;56;20962;-69
2021/03/25 11:22:51;;;;;;;7.93;3.75;;;24.40;56.70;;;;;;2276302;56;21014;-71
2021/03/25 11:25:26;;;;;;;6.82;3.80;;;24.50;56.00;;;;;;2279303;56;21096;-72
2021/03/25 11:27:53;;;;;;;8.77;3.78;;;24.70;55.00;;;;;;2276462;56;20959;-69
2021/03/25 11:30:50;;;;;;;6.80;3.95;;;24.80;55.80;;;;;;2280427;56;20923;-69
2021/03/25 11:33:41;;;;;;;6.22;3.78;;;24.90;54.80;;;;;;2522102;55;20926;-69
2021/03/25 11:36:09;;;;;;;6.78;3.87;;;25.00;51.50;;;;;;2495893;55;20923;-69
2021/03/25 11:38:41;;;;;;;9.82;4.60;;;25.00;53.50;;;;;;2522986;55;20955;-69
2021/03/25 11:41:52;;;;;;;6.95;4.03;;;25.00;52.90;;;;;;2270004;56;21007;-69
2021/03/25 11:51:20;;;;;;;6.03;3.67;;;25.00;51.70;;;;;;2522930;55;21031;-72
2021/03/25 11:53:53;;;;;;;6.12;3.28;;;25.20;53.70;;;;;;2508156;55;21010;-70
2021/03/25 11:56:27;;;;;;;8.48;3.78;;;25.30;55.20;;;;;;2510803;55;21003;-69
2021/03/25 11:59:04;;;;;;;6.25;3.85;;;25.30;54.20;;;;;;2500216;55;20994;-69
2021/03/25 12:01:32;;;;;;;6.10;3.72;;;25.40;53.00;;;;;;2521919;55;20954;-69
2021/03/25 12:04:07;;;;;;;8.40;3.97;;;25.40;54.20;;;;;;2288146;56;20939;-69
2021/03/25 12:06:56;;;;;;;6.85;3.58;;;25.50;53.90;;;;;;2490725;55;21861;-68
2021/03/25 12:09:22;;;;;;;6.62;3.80;;;25.60;54.10;;;;;;2505655;55;20927;-69
2021/03/25 12:11:49;;;;;;;5.93;3.95;;;25.70;53.10;;;;;;2522521;55;21002;-69
2021/03/25 12:14:17;;;;;;;7.22;3.65;;;25.60;52.20;;;;;;2285732;55;21030;-70
2021/03/25 12:16:45;;;;;;;6.12;3.78;;;25.60;51.90;;;;;;2276760;56;21490;-68
2021/03/25 12:19:35;;;;;;;6.80;3.53;;;25.50;52.10;;;;;;2501850;55;20951;-67
2021/03/25 12:22:12;;;;;;;6.43;3.83;;;25.50;51.50;;;;;;2523389;55;20932;-66
2021/03/25 12:24:38;;;;;;;8.68;4.40;;;25.40;51.70;;;;;;2495650;55;21066;-67
2021/03/25 12:27:05;;;;;;;6.43;3.55;;;25.40;50.80;;;;;;2288265;56;20987;-68
2021/03/25 12:29:32;;;;;;;6.65;3.75;;;25.30;50.90;;;;;;2288478;56;21069;-66
2021/03/25 12:31:58;;;;;;;5.97;3.60;;;25.20;51.00;;;;;;2522764;55;21069;-67
2021/03/25 12:34:45;;;;;;;6.18;3.10;;;25.20;50.70;;;;;;2522271;55;21003;-69
2021/03/25 12:37:11;;;;;;;6.05;3.35;;;25.10;50.70;;;;;;2288865;56;20958;-72
2021/03/25 12:39:37;;;;;;;7.87;3.55;;;25.00;50.70;;;;;;2276087;56;20995;-68
2021/03/25 12:42:04;;;;;;;4.78;2.90;;;24.90;50.70;;;;;;2497743;55;21760;-69
2021/03/25 12:44:31;;;;;;;8.30;3.80;;;24.80;50.90;;;;;;2273651;56;21569;-69
2021/03/25 12:47:01;;;;;;;6.60;3.58;;;24.80;50.60;;;;;;2281371;56;21455;-68
2021/03/25 12:49:28;;;;;;;7.20;3.60;;;24.80;50.70;;;;;;2281899;56;21002;-72
2021/03/25 12:51:54;;;;;;;6.43;3.47;;;24.80;50.70;;;;;;2510677;55;20935;-69
2021/03/25 12:54:22;;;;;;;7.18;4.07;;;24.80;50.70;;;;;;2522034;55;21444;-70
2021/03/25 12:56:49;;;;;;;5.25;3.37;;;24.70;50.50;;;;;;2288115;56;20979;-71
2021/03/25 12:59:18;;;;;;;6.32;3.60;;;24.70;50.20;;;;;;2522182;55;21035;-72
2021/03/25 13:01:44;;;;;;;8.32;3.72;;;24.70;49.10;;;;;;2287555;56;20991;-73
2021/03/25 13:04:13;;;;;;;5.60;3.15;;;24.60;49.70;;;;;;2288114;56;20939;-70
2021/03/25 13:06:40;;;;;;;5.65;3.10;;;24.60;50.10;;;;;;2269232;56;20951;-68
2021/03/25 13:09:07;;;;;;;5.53;3.20;;;24.50;50.40;;;;;;2287754;56;20951;-69
2021/03/25 13:11:33;;;;;;;6.18;3.35;;;24.50;50.20;;;;;;2288509;56;21014;-69
2021/03/25 13:14:03;;;;;;;6.95;3.87;;;24.50;50.20;;;;;;2506974;55;21042;-69
2021/03/25 13:16:30;;;;;;;7.18;3.50;;;24.40;47.90;;;;;;2283901;55;21431;-69
2021/03/25 13:18:56;;;;;;;8.07;4.25;;;24.40;48.90;;;;;;2269329;55;20987;-68
2021/03/25 13:21:25;;;;;;;6.78;3.85;;;24.30;48.70;;;;;;2288778;56;20943;-68
2021/03/25 13:23:55;;;;;;;6.72;3.30;;;24.20;48.60;;;;;;2288187;56;20923;-75
2021/03/25 13:26:21;;;;;;;6.45;3.90;;;24.20;49.60;;;;;;2288576;56;20950;-71
2021/03/25 13:28:50;;;;;;;7.05;3.78;;;24.20;49.70;;;;;;2287911;56;21270;-70
2021/03/25 13:31:16;;;;;;;8.98;3.95;;;24.20;49.80;;;;;;2522431;55;21598;-70
2021/03/25 13:33:43;;;;;;;6.87;3.85;;;24.30;49.80;;;;;;2287118;56;21608;-67
2021/03/25 13:36:10;;;;;;;5.90;3.65;;;24.40;50.00;;;;;;2501788;55;21015;-74
2021/03/25 13:38:37;;;;;;;6.47;3.65;;;24.40;49.50;;;;;;2288508;56;21094;-72
2021/03/25 13:41:03;;;;;;;5.82;3.22;;;24.50;49.50;;;;;;2519964;55;20949;-69
2021/03/25 13:43:32;;;;;;;6.37;3.28;;;24.50;49.40;;;;;;2268828;56;20982;-72
2021/03/25 13:45:59;;;;;;;6.05;3.35;;;24.50;48.80;;;;;;2494388;55;20935;-71
2021/03/25 13:48:26;;;;;;;6.37;3.08;;;24.50;48.60;;;;;;2495339;55;20978;-71
2021/03/25 13:50:55;;;;;;;5.57;3.10;;;24.40;47.60;;;;;;2496218;55;21142;-75
2021/03/25 13:53:22;;;;;;;6.47;3.95;;;24.40;47.50;;;;;;2522923;55;20963;-71
2021/03/25 13:55:50;;;;;;;6.50;3.60;;;24.30;46.20;;;;;;2497655;55;20958;-69
2021/03/25 13:58:18;;;;;;;6.45;3.22;;;24.20;46.20;;;;;;2496524;55;21579;-69
2021/03/25 14:00:45;;;;;;;6.72;3.70;;;24.10;46.40;;;;;;2287843;56;21062;-68
2021/03/25 14:03:13;;;;;;;6.82;3.80;;;24.00;45.70;;;;;;2522786;55;21014;-70
2021/03/25 14:05:39;;;;;;;6.25;3.55;;;23.90;45.80;;;;;;2512741;55;21054;-74
2021/03/25 14:08:06;;;;;;;6.90;4.15;;;23.80;45.00;;;;;;2275840;56;20984;-71
2021/03/25 14:10:33;;;;;;;6.35;3.40;;;23.70;45.30;;;;;;2288287;56;21004;-70
2021/03/25 14:13:00;;;;;;;5.65;2.92;;;23.50;45.70;;;;;;2496621;55;20974;-70
2021/03/25 14:15:40;;;;;;;6.78;3.67;;;23.40;46.30;;;;;;2521070;55;20950;-73
2021/03/25 14:18:10;;;;;;;8.98;3.50;;;23.40;46.00;;;;;;2520316;55;21015;-69
2021/03/25 14:20:37;;;;;;;6.07;2.75;;;23.30;46.30;;;;;;2270294;56;20959;-68
2021/03/25 14:23:04;;;;;;;4.70;2.87;;;23.20;46.80;;;;;;2269699;55;21032;-69
2021/03/25 14:25:32;;;;;;;7.15;3.40;;;23.20;46.80;;;;;;2281580;55;21047;-69
2021/03/25 14:28:03;;;;;;;4.57;2.65;;;23.10;46.10;;;;;;2285563;55;20978;-67
2021/03/25 14:30:30;;;;;;;5.22;2.72;;;23.00;46.50;;;;;;2269519;56;20942;-69
2021/03/25 14:32:58;;;;;;;5.85;3.00;;;22.90;46.70;;;;;;2288764;56;21031;-67
2021/03/25 14:35:27;;;;;;;8.02;3.00;;;22.90;47.10;;;;;;2284738;55;21002;-73
2021/03/25 14:37:56;;;;;;;5.80;3.30;;;22.80;47.20;;;;;;2497789;55;21109;-71
2021/03/25 14:40:23;;;;;;;6.53;3.20;;;22.80;47.40;;;;;;2285387;55;20930;-69
2021/03/25 14:42:50;;;;;;;6.25;3.30;;;22.80;47.70;;;;;;2281249;55;21887;-73
2021/03/25 14:45:18;;;;;;;5.18;2.67;;;22.80;47.80;;;;;;2509430;55;21003;-71
2021/03/25 14:47:44;;;;;;;6.00;2.80;;;22.80;48.20;;;;;;2522421;55;21718;-73
2021/03/25 14:50:11;;;;;;;5.32;2.80;;;22.80;48.50;;;;;;2288359;56;20995;-70
2021/03/25 14:52:37;;;;;;;5.20;2.87;;;22.90;48.80;;;;;;2513646;55;20985;-72
2021/03/25 14:55:07;;;;;;;5.43;3.10;;;23.00;49.10;;;;;;2506396;55;21047;-71
2021/03/25 14:57:34;;;;;;;6.43;3.20;;;23.10;48.80;;;;;;2290430;56;20970;-70
2021/03/25 15:00:03;;;;;;;6.00;3.03;;;23.10;48.60;;;;;;2498746;55;20974;-67